Hauptseite
METAR-TAF:

METAR-TAF

Flughäfen :

Fliegerhorst Holzdorf

Holzdorf, Deutschland

Breite: 51-46N, Länge: 013-11E, Höhe: 79 m

Beobachtung

Neuester Wetterbericht von vor 29 Minuten, um 05:20 UTC
Wind 1 kt aus Ost/Südost
Temperatur 3°C
Luftfeuchtigkeit 100%
Luftdruck 1027 hPa
Sichtweite: 4000 m
Leicht bewölkt in der Höhe von 34000 ft
Nebel in der Nähe, Flacher Nebel

METAR: ETSH 070520Z 12001KT 4000 VCFG MIFG FEW340 03/03 Q1027 GRN BLU+ TEMPO GRN

Zeit: 07:49 (05:49 UTC)

Prognose

Neuester Wetterbericht von vor 1 Stunde und 28 Minuten, um 04:21 UTC
Gültige Prognose vom 07 um 05 UTC bis 07 um 14 UTC
Wind 4 kt aus Süd/Südost
Sichtweite 10 km oder mehr
Himmel klar
Zeitweise
vom 07 um 05 UTC bis 07 um 07 UTC
Wind 2 kt aus Ost/Südost
Sichtweite: 4000 m
Himmel klar
Nebelschwaden

TAF: ETSH 070421Z 0705/0714 16004KT 9999 NSW SKC TEMPO 0705/0707 12002KT 4000 BCFG SKC

Wetterbeobachtungen und Prognosen von mehr als 4000 Flughäfen (METAR und TAF Bericht).

Die verfügbaren Stationen werden durch gelbe und rote Markierungen auf der Karte dargestellt.

Führen Sie die Maus auf sie, um den Namen der Station zu sehen.

Darauf klicken, um die Beobachtung von Wetterbeobachtungen und Prognosen zu sehen.

Um die Karte zu ändern : klicken Sie auf den grünen Tasten mit einem schwarzen Kreuz Zum Vergrößern, auf den grünen Button mit einem Gedankenstrich zu verkleinern, oder auf die grünen Pfeile für benachbarte Karten.


METAR-TAF: